createdAt,value
2018-12-07T00:01:29.840Z,1.82
2018-12-07T00:03:58.862Z,0.75
2018-12-07T00:06:27.598Z,1.10
2018-12-07T00:08:56.444Z,1.20
2018-12-07T00:11:25.190Z,1.52
2018-12-07T00:13:53.977Z,1.25
2018-12-07T00:16:22.660Z,1.02
2018-12-07T00:18:51.447Z,0.55
2018-12-07T00:21:19.963Z,0.70
2018-12-07T00:23:48.721Z,0.53
2018-12-07T00:26:17.442Z,0.50
2018-12-07T00:28:46.036Z,0.72
2018-12-07T00:31:14.763Z,0.90
2018-12-07T00:33:43.414Z,0.70
2018-12-07T00:36:12.141Z,0.72
2018-12-07T00:38:41.018Z,0.93
2018-12-07T00:41:09.704Z,0.68
2018-12-07T00:43:38.270Z,0.80
2018-12-07T00:46:06.771Z,0.60
2018-12-07T00:48:35.586Z,0.65
2018-12-07T00:51:04.327Z,0.80
2018-12-07T00:53:33.165Z,0.57
2018-12-07T00:56:01.861Z,0.70
2018-12-07T00:58:30.509Z,0.35
2018-12-07T01:00:59.178Z,0.33
2018-12-07T01:03:27.924Z,0.60
2018-12-07T01:05:56.491Z,0.50
2018-12-07T01:08:25.673Z,0.57
2018-12-07T01:10:54.225Z,0.50
2018-12-07T01:13:23.048Z,0.50
2018-12-07T01:15:51.897Z,0.60
2018-12-07T01:18:20.559Z,0.80
2018-12-07T01:20:49.160Z,0.25
2018-12-07T01:23:17.788Z,0.50
2018-12-07T01:25:46.408Z,0.50
2018-12-07T01:28:15.028Z,0.40
2018-12-07T01:30:43.859Z,0.50
2018-12-07T01:33:12.677Z,0.40
2018-12-07T01:35:41.704Z,0.42
2018-12-07T01:38:10.527Z,0.30
2018-12-07T01:40:39.155Z,0.35
2018-12-07T01:43:07.911Z,0.40
2018-12-07T01:45:36.570Z,0.35
2018-12-07T01:48:05.331Z,0.42
2018-12-07T01:50:34.062Z,0.47
2018-12-07T01:53:02.588Z,0.40
2018-12-07T01:55:31.345Z,0.42
2018-12-07T01:58:00.184Z,0.25
2018-12-07T02:00:28.969Z,0.70
2018-12-07T02:02:57.698Z,0.37
2018-12-07T02:05:26.380Z,0.40
2018-12-07T02:07:54.977Z,0.50
2018-12-07T02:10:23.588Z,0.20
2018-12-07T02:12:52.257Z,0.30
2018-12-07T02:15:20.870Z,0.28
2018-12-07T02:17:49.577Z,0.20
2018-12-07T02:20:18.155Z,0.40
2018-12-07T02:22:46.992Z,0.30
2018-12-07T02:25:15.866Z,0.20
2018-12-07T02:27:49.697Z,0.30
2018-12-07T02:30:18.452Z,0.20
2018-12-07T02:32:47.002Z,0.20
2018-12-07T02:35:15.630Z,0.10
2018-12-07T02:37:44.217Z,0.33
2018-12-07T02:40:12.920Z,0.10
2018-12-07T02:42:41.549Z,0.20
2018-12-07T02:45:10.184Z,0.15
2018-12-07T02:47:40.419Z,0.10
2018-12-07T02:50:09.375Z,0.10
2018-12-07T02:52:37.967Z,0.30
2018-12-07T02:55:07.630Z,0.20
2018-12-07T02:57:36.248Z,0.10
2018-12-07T03:00:06.129Z,0.20
2018-12-07T03:02:34.914Z,0.10
2018-12-07T03:05:03.563Z,0.10
2018-12-07T03:07:32.322Z,0.05
2018-12-07T03:10:01.005Z,0.20
2018-12-07T03:12:29.553Z,0.10
2018-12-07T03:14:58.239Z,0.05
2018-12-07T03:17:26.826Z,0.30
2018-12-07T03:19:55.604Z,0.15
2018-12-07T03:22:24.187Z,0.15
2018-12-07T03:24:52.723Z,0.10
2018-12-07T03:27:21.530Z,0.20
2018-12-07T03:29:50.405Z,0.10
2018-12-07T03:32:19.198Z,0.10
2018-12-07T03:34:47.776Z,0.20
2018-12-07T03:37:16.518Z,0.20
2018-12-07T03:39:45.278Z,0.28
2018-12-07T03:42:14.108Z,0.15
2018-12-07T03:44:42.705Z,0.10
2018-12-07T03:47:11.420Z,0.13
2018-12-07T03:49:39.989Z,0.20
2018-12-07T03:52:08.698Z,0.20
2018-12-07T03:54:37.599Z,0.30
2018-12-07T03:57:06.318Z,0.20
2018-12-07T03:59:35.040Z,0.10
2018-12-07T04:02:04.126Z,0.10
2018-12-07T04:04:32.792Z,0.10
2018-12-07T04:07:01.352Z,0.10
2018-12-07T04:09:30.305Z,0.10
2018-12-07T04:11:58.899Z,0.10
2018-12-07T04:14:27.786Z,0.10
2018-12-07T04:16:56.392Z,0.10
2018-12-07T04:19:25.278Z,0.10
2018-12-07T04:21:54.080Z,0.10
2018-12-07T04:24:22.759Z,0.30
2018-12-07T04:26:51.324Z,0.10
2018-12-07T04:29:20.030Z,0.10
2018-12-07T04:31:48.785Z,0.10
2018-12-07T04:34:17.804Z,0.30
2018-12-07T04:36:46.346Z,0.20
2018-12-07T04:39:15.058Z,0.20
2018-12-07T04:41:44.670Z,0.23
2018-12-07T04:44:13.297Z,0.85
2018-12-07T04:46:41.986Z,0.30
2018-12-07T04:49:10.830Z,0.20
2018-12-07T04:51:39.508Z,0.20
2018-12-07T04:54:08.207Z,0.45
2018-12-07T04:56:36.987Z,0.40
2018-12-07T04:59:05.650Z,0.50
2018-12-07T05:01:34.459Z,1.00
2018-12-07T05:04:03.177Z,0.50
2018-12-07T05:06:31.961Z,0.82
2018-12-07T05:09:00.748Z,0.70
2018-12-07T05:11:29.642Z,1.05
2018-12-07T05:13:58.430Z,1.17
2018-12-07T05:16:27.226Z,0.40
2018-12-07T05:18:56.000Z,0.80
2018-12-07T05:21:24.677Z,0.70
2018-12-07T05:23:53.227Z,0.88
2018-12-07T05:26:22.066Z,0.98
2018-12-07T05:28:50.832Z,0.60
2018-12-07T05:31:19.651Z,1.10
2018-12-07T05:33:48.330Z,0.62
2018-12-07T05:36:16.965Z,0.80
2018-12-07T05:38:45.557Z,1.15
2018-12-07T05:41:14.232Z,2.17
2018-12-07T05:43:54.152Z,1.17
2018-12-07T05:46:22.916Z,1.40
2018-12-07T05:48:51.690Z,1.67
2018-12-07T05:51:20.393Z,1.42
2018-12-07T05:53:49.923Z,1.25
2018-12-07T05:56:18.783Z,1.22
2018-12-07T05:58:47.447Z,1.12
2018-12-07T06:01:16.226Z,1.50
2018-12-07T06:03:45.019Z,2.67
2018-12-07T06:06:13.829Z,0.93
2018-12-07T06:08:42.607Z,1.17
2018-12-07T06:11:11.356Z,1.20
2018-12-07T06:13:39.975Z,1.42
2018-12-07T06:16:08.564Z,1.02
2018-12-07T06:18:37.570Z,0.88
2018-12-07T06:21:06.318Z,2.00
2018-12-07T06:23:35.070Z,0.82
2018-12-07T06:26:03.740Z,0.80
2018-12-07T06:28:32.688Z,1.12
2018-12-07T06:31:01.366Z,0.90
2018-12-07T06:33:30.194Z,0.90
2018-12-07T06:35:58.836Z,0.98
2018-12-07T06:38:27.613Z,1.03
2018-12-07T06:40:56.372Z,0.75
2018-12-07T06:43:24.941Z,0.80
2018-12-07T06:45:53.504Z,0.72
2018-12-07T06:48:22.014Z,0.88
2018-12-07T06:50:50.668Z,0.93
2018-12-07T06:53:19.543Z,0.37
2018-12-07T06:55:48.235Z,0.70
2018-12-07T06:58:16.954Z,0.80
2018-12-07T07:00:45.713Z,0.98
2018-12-07T07:03:14.549Z,1.33
2018-12-07T07:05:43.455Z,0.72
2018-12-07T07:08:12.213Z,0.40
2018-12-07T07:10:40.990Z,0.60
2018-12-07T07:13:09.812Z,0.70
2018-12-07T07:15:38.346Z,0.50
2018-12-07T07:18:06.930Z,0.50
2018-12-07T07:20:35.455Z,0.30
2018-12-07T07:23:04.158Z,0.40
2018-12-07T07:25:33.129Z,0.50
2018-12-07T07:28:01.767Z,0.47
2018-12-07T07:30:30.302Z,0.30
2018-12-07T07:32:58.861Z,0.60
2018-12-07T07:35:27.584Z,0.50
2018-12-07T07:37:56.895Z,0.40
2018-12-07T07:40:25.457Z,0.40
2018-12-07T07:42:54.122Z,0.47
2018-12-07T07:45:22.816Z,0.40
2018-12-07T07:47:51.514Z,0.50
2018-12-07T07:50:20.217Z,0.40
2018-12-07T07:52:48.952Z,0.30
2018-12-07T07:55:17.554Z,0.55
2018-12-07T07:57:46.145Z,0.53
2018-12-07T08:00:14.826Z,0.53
2018-12-07T08:02:43.592Z,0.55
2018-12-07T08:05:12.376Z,0.70
2018-12-07T08:07:41.286Z,0.53
2018-12-07T08:10:10.569Z,0.60
2018-12-07T08:12:39.269Z,0.40
2018-12-07T08:15:08.089Z,0.42
2018-12-07T08:17:36.836Z,0.30
2018-12-07T08:20:06.137Z,0.68
2018-12-07T08:22:35.728Z,0.30
2018-12-07T08:25:05.172Z,0.30
2018-12-07T08:27:33.837Z,0.65
2018-12-07T08:30:02.669Z,0.47
2018-12-07T08:32:32.053Z,0.98
2018-12-07T08:35:00.672Z,0.70
2018-12-07T08:37:29.389Z,0.90
2018-12-07T08:39:57.993Z,0.50
2018-12-07T08:42:26.739Z,0.55
2018-12-07T08:44:55.378Z,0.97
2018-12-07T08:47:24.121Z,0.93
2018-12-07T08:49:55.929Z,0.60
2018-12-07T08:52:24.910Z,0.80
2018-12-07T08:54:53.582Z,0.82
2018-12-07T08:57:22.470Z,1.10
2018-12-07T08:59:51.098Z,1.45
2018-12-07T09:02:19.883Z,0.75
2018-12-07T09:04:48.551Z,0.95
2018-12-07T09:07:17.847Z,1.00
2018-12-07T09:09:46.544Z,1.12
2018-12-07T09:12:15.497Z,1.00
2018-12-07T09:14:44.154Z,1.33
2018-12-07T09:17:12.822Z,1.10
2018-12-07T09:19:41.610Z,0.70
2018-12-07T09:22:10.372Z,1.20
2018-12-07T09:24:39.158Z,1.15
2018-12-07T09:27:07.974Z,1.17
2018-12-07T09:29:36.671Z,1.20
2018-12-07T09:32:05.213Z,1.27
2018-12-07T09:34:34.001Z,1.00
2018-12-07T09:37:02.657Z,1.15
2018-12-07T09:39:31.493Z,1.07
2018-12-07T09:42:00.288Z,1.47
2018-12-07T09:44:29.074Z,0.90
2018-12-07T09:46:57.659Z,1.10
2018-12-07T09:49:26.366Z,1.10
2018-12-07T09:51:55.062Z,2.17
2018-12-07T09:54:23.625Z,0.90
2018-12-07T09:56:52.432Z,0.88
2018-12-07T09:59:21.176Z,1.00
2018-12-07T10:01:49.797Z,0.95
2018-12-07T10:04:18.599Z,1.02
2018-12-07T10:06:47.319Z,0.72
2018-12-07T10:09:16.119Z,1.10
2018-12-07T10:11:44.705Z,1.05
2018-12-07T10:14:13.527Z,1.42
2018-12-07T10:16:42.232Z,1.00
2018-12-07T10:19:10.965Z,1.10
2018-12-07T10:21:39.553Z,1.72
2018-12-07T10:24:08.432Z,1.70
2018-12-07T10:26:37.144Z,1.60
2018-12-07T10:29:05.819Z,1.52
2018-12-07T10:31:34.433Z,1.20
2018-12-07T10:34:03.031Z,1.80
2018-12-07T10:36:31.840Z,2.92
2018-12-07T10:39:00.910Z,2.92
2018-12-07T10:41:29.759Z,2.40
2018-12-07T10:43:58.546Z,2.47
2018-12-07T10:46:27.129Z,2.15
2018-12-07T10:48:55.858Z,1.87
2018-12-07T10:51:24.538Z,2.33
2018-12-07T10:53:54.140Z,2.93
2018-12-07T10:56:22.747Z,2.40
2018-12-07T10:58:51.338Z,2.12
2018-12-07T11:01:25.326Z,2.40
2018-12-07T11:03:59.327Z,2.15
2018-12-07T11:06:33.260Z,2.80
2018-12-07T11:09:06.139Z,2.43
2018-12-07T11:11:40.447Z,2.50
2018-12-07T11:14:12.377Z,2.30
2018-12-07T11:16:46.893Z,4.20
2018-12-07T11:19:21.004Z,3.07
2018-12-07T11:21:54.793Z,3.27
2018-12-07T11:24:28.818Z,2.93
2018-12-07T11:27:02.688Z,3.42
2018-12-07T11:29:36.588Z,3.33
2018-12-07T11:32:10.441Z,5.13
2018-12-07T11:34:46.319Z,3.83
2018-12-07T11:37:15.399Z,5.30
2018-12-07T11:39:44.164Z,3.97
2018-12-07T11:42:12.767Z,4.85
2018-12-07T11:44:41.462Z,4.63
2018-12-07T11:47:10.268Z,3.53
2018-12-07T11:49:38.788Z,4.83
2018-12-07T11:52:07.420Z,6.30
2018-12-07T11:54:36.215Z,4.27
2018-12-07T11:57:05.011Z,4.43
2018-12-07T11:59:33.908Z,4.07
2018-12-07T12:02:02.648Z,4.00
2018-12-07T12:04:31.239Z,5.40
2018-12-07T12:06:59.963Z,4.57
2018-12-07T12:09:28.775Z,3.98
2018-12-07T12:11:57.553Z,4.23
2018-12-07T12:14:26.145Z,4.27
2018-12-07T12:16:54.874Z,4.27
2018-12-07T12:19:23.614Z,4.23
2018-12-07T12:21:52.339Z,4.80
2018-12-07T12:24:21.056Z,6.00
2018-12-07T12:26:49.978Z,5.93
2018-12-07T12:29:18.768Z,4.60
2018-12-07T12:31:47.408Z,6.43
2018-12-07T12:34:16.183Z,4.50
2018-12-07T12:36:44.902Z,4.57
2018-12-07T12:39:13.730Z,5.30
2018-12-07T12:41:46.673Z,3.63
2018-12-07T12:44:13.324Z,4.53
2018-12-07T12:46:42.146Z,4.07
2018-12-07T12:49:10.833Z,4.70
2018-12-07T12:51:39.846Z,3.70
2018-12-07T12:54:08.677Z,4.03
2018-12-07T12:56:37.398Z,3.93
2018-12-07T12:59:06.250Z,3.60
2018-12-07T13:01:35.010Z,1.90
2018-12-07T13:04:03.760Z,1.70
2018-12-07T13:06:32.321Z,1.57
2018-12-07T13:09:01.000Z,2.43
2018-12-07T13:11:29.552Z,1.70
2018-12-07T13:13:58.401Z,1.87
2018-12-07T13:16:27.195Z,2.47
2018-12-07T13:18:56.119Z,2.20
2018-12-07T13:21:24.768Z,2.80
2018-12-07T13:23:53.525Z,2.70
2018-12-07T13:26:22.327Z,2.17
2018-12-07T13:28:50.898Z,2.17
2018-12-07T13:31:19.595Z,2.40
2018-12-07T13:33:48.109Z,3.63
2018-12-07T13:36:16.954Z,3.30
2018-12-07T13:38:45.646Z,2.80
2018-12-07T13:41:14.331Z,2.60
2018-12-07T13:43:43.321Z,3.03
2018-12-07T13:46:12.415Z,3.60
2018-12-07T13:48:41.304Z,3.40
2018-12-07T13:51:10.223Z,5.23
2018-12-07T13:53:38.912Z,3.60
2018-12-07T13:56:07.997Z,2.70
2018-12-07T13:58:37.179Z,3.67
2018-12-07T14:01:06.101Z,3.13
2018-12-07T14:03:35.082Z,3.10
2018-12-07T14:06:03.877Z,3.43
2018-12-07T14:08:32.697Z,2.93
2018-12-07T14:11:01.657Z,2.90
2018-12-07T14:13:30.624Z,4.30
2018-12-07T14:15:59.747Z,3.10
2018-12-07T14:18:28.454Z,2.93
2018-12-07T14:20:57.043Z,4.87
2018-12-07T14:23:26.200Z,2.47
2018-12-07T14:25:54.933Z,2.77
2018-12-07T14:28:23.748Z,3.27
2018-12-07T14:30:52.602Z,2.70
2018-12-07T14:33:21.339Z,4.20
2018-12-07T14:35:50.116Z,3.03
2018-12-07T14:38:18.961Z,2.97
2018-12-07T14:40:48.088Z,3.10
2018-12-07T14:43:16.895Z,3.10
2018-12-07T14:45:45.680Z,2.90
2018-12-07T14:48:14.505Z,4.00
2018-12-07T14:50:43.399Z,3.10
2018-12-07T14:53:12.413Z,3.03
2018-12-07T14:55:41.255Z,3.70
2018-12-07T14:58:10.404Z,2.83
2018-12-07T15:00:39.207Z,3.87
2018-12-07T15:03:08.224Z,2.67
2018-12-07T15:05:37.246Z,2.93
2018-12-07T15:08:06.233Z,3.13
2018-12-07T15:10:34.999Z,3.53
2018-12-07T15:13:04.126Z,2.83
2018-12-07T15:15:32.935Z,3.77
2018-12-07T15:18:01.637Z,3.60
2018-12-07T15:20:30.721Z,3.50
2018-12-07T15:22:59.732Z,4.10
2018-12-07T15:25:28.709Z,2.80
2018-12-07T15:27:57.677Z,3.13
2018-12-07T15:30:26.408Z,3.60
2018-12-07T15:32:55.560Z,3.00
2018-12-07T15:35:24.839Z,3.97
2018-12-07T15:37:53.757Z,3.40
2018-12-07T15:40:22.645Z,3.13
2018-12-07T15:42:51.377Z,3.00
2018-12-07T15:45:20.071Z,2.77
2018-12-07T15:47:48.693Z,4.50
2018-12-07T15:50:24.849Z,2.33
2018-12-07T15:52:48.188Z,3.23
2018-12-07T15:55:17.303Z,2.50
2018-12-07T15:57:46.247Z,2.63
2018-12-07T16:00:15.867Z,2.43
2018-12-07T16:02:44.938Z,2.50
2018-12-07T16:05:13.844Z,3.80
2018-12-07T16:07:42.827Z,2.77
2018-12-07T16:10:11.624Z,2.60
2018-12-07T16:12:40.366Z,2.37
2018-12-07T16:15:09.296Z,2.80
2018-12-07T16:17:38.247Z,3.57
2018-12-07T16:20:11.643Z,3.03
2018-12-07T16:22:40.696Z,2.37
2018-12-07T16:25:09.482Z,3.37
2018-12-07T16:27:38.366Z,4.12
2018-12-07T16:30:09.480Z,3.50
2018-12-07T16:32:38.830Z,3.20
2018-12-07T16:35:07.820Z,2.93
2018-12-07T16:37:36.715Z,3.20
2018-12-07T16:40:07.110Z,3.33
2018-12-07T16:42:36.035Z,2.33
2018-12-07T16:45:05.358Z,2.80
2018-12-07T16:47:34.192Z,2.70
2018-12-07T16:50:03.678Z,4.15
2018-12-07T16:52:32.353Z,3.33
2018-12-07T16:55:01.174Z,4.60
2018-12-07T16:57:30.311Z,2.80
2018-12-07T16:59:59.164Z,3.63
2018-12-07T17:02:28.174Z,3.93
2018-12-07T17:04:57.486Z,2.17
2018-12-07T17:07:26.401Z,3.07
2018-12-07T17:09:55.427Z,3.43
2018-12-07T17:12:24.850Z,4.20
2018-12-07T17:14:53.837Z,2.20
2018-12-07T17:17:23.235Z,3.40
2018-12-07T17:19:52.663Z,3.40
2018-12-07T17:22:21.501Z,2.70
2018-12-07T17:24:50.478Z,3.07
2018-12-07T17:27:19.280Z,3.30
2018-12-07T17:29:48.110Z,2.43
2018-12-07T17:32:16.788Z,4.47
2018-12-07T17:34:45.588Z,3.13
2018-12-07T17:37:14.372Z,5.03
2018-12-07T17:39:43.201Z,3.33
2018-12-07T17:42:12.158Z,2.93
2018-12-07T17:44:41.090Z,3.13
2018-12-07T17:47:09.936Z,3.45
2018-12-07T17:49:38.696Z,2.80
2018-12-07T17:52:07.922Z,2.90
2018-12-07T17:54:37.351Z,3.95
2018-12-07T17:57:06.454Z,3.30
2018-12-07T17:59:35.339Z,3.00
2018-12-07T18:02:04.150Z,2.63
2018-12-07T18:04:32.745Z,2.67
2018-12-07T18:07:01.597Z,2.67
2018-12-07T18:09:30.451Z,2.65
2018-12-07T18:11:59.327Z,2.80
2018-12-07T18:14:28.297Z,3.43
2018-12-07T18:16:57.181Z,3.17
2018-12-07T18:19:26.260Z,2.62
2018-12-07T18:21:55.760Z,2.03
2018-12-07T18:24:24.962Z,2.37
2018-12-07T18:26:53.972Z,2.92
2018-12-07T18:29:22.705Z,2.63
2018-12-07T18:31:51.509Z,2.43
2018-12-07T18:34:20.619Z,2.95
2018-12-07T18:36:50.052Z,2.00
2018-12-07T18:39:19.010Z,2.03
2018-12-07T18:41:48.239Z,2.90
2018-12-07T18:44:17.042Z,2.10
2018-12-07T18:46:45.773Z,1.73
2018-12-07T18:49:14.582Z,2.30
2018-12-07T18:51:43.555Z,1.67
2018-12-07T18:54:12.244Z,2.30
2018-12-07T18:56:41.302Z,2.00
2018-12-07T18:59:10.286Z,2.10
2018-12-07T19:01:39.404Z,1.63
2018-12-07T19:04:08.535Z,2.00
2018-12-07T19:06:37.458Z,2.43
2018-12-07T19:09:08.988Z,1.73
2018-12-07T19:11:37.887Z,1.53
2018-12-07T19:14:07.027Z,2.80
2018-12-07T19:16:35.783Z,1.70
2018-12-07T19:19:04.484Z,2.35
2018-12-07T19:21:33.289Z,2.53
2018-12-07T19:24:02.223Z,2.93
2018-12-07T19:26:31.370Z,2.40
2018-12-07T19:29:00.171Z,2.13
2018-12-07T19:31:29.207Z,1.87
2018-12-07T19:33:58.002Z,2.03
2018-12-07T19:36:27.076Z,1.83
2018-12-07T19:38:56.053Z,1.90
2018-12-07T19:41:25.097Z,2.55
2018-12-07T19:43:53.992Z,2.37
2018-12-07T19:46:22.904Z,2.95
2018-12-07T19:48:51.664Z,1.90
2018-12-07T19:51:20.672Z,2.67
2018-12-07T19:53:49.856Z,2.43
2018-12-07T19:56:18.676Z,2.87
2018-12-07T19:58:47.737Z,2.30
2018-12-07T20:01:16.935Z,3.90
2018-12-07T20:03:45.801Z,2.40
2018-12-07T20:06:15.712Z,3.03
2018-12-07T20:08:44.954Z,1.97
2018-12-07T20:11:14.130Z,2.47
2018-12-07T20:13:43.211Z,2.43
2018-12-07T20:16:12.076Z,2.90
2018-12-07T20:18:41.280Z,3.03
2018-12-07T20:21:10.697Z,2.37
2018-12-07T20:23:39.723Z,2.17
2018-12-07T20:26:08.509Z,2.10
2018-12-07T20:28:37.625Z,2.63
2018-12-07T20:31:06.622Z,2.23
2018-12-07T20:33:35.921Z,2.37
2018-12-07T20:36:04.855Z,3.13
2018-12-07T20:38:33.898Z,2.50
2018-12-07T20:41:02.818Z,1.80
2018-12-07T20:43:31.649Z,2.33
2018-12-07T20:46:01.956Z,2.30
2018-12-07T20:48:31.282Z,1.70
2018-12-07T20:51:00.376Z,2.30
2018-12-07T20:53:29.513Z,1.60
2018-12-07T20:55:58.455Z,1.70
2018-12-07T20:58:27.415Z,2.13
2018-12-07T21:00:59.415Z,2.70
2018-12-07T21:04:36.668Z,2.90
2018-12-07T21:07:51.854Z,2.37
2018-12-07T21:11:07.927Z,2.30
2018-12-07T21:14:22.973Z,2.07
2018-12-07T21:17:32.790Z,3.00
2018-12-07T21:20:23.108Z,1.50
2018-12-07T21:22:53.399Z,2.17
2018-12-07T21:25:22.227Z,1.53
2018-12-07T21:27:51.128Z,2.63
2018-12-07T21:30:47.664Z,2.17
2018-12-07T21:33:18.884Z,2.17
2018-12-07T21:36:24.433Z,2.07
2018-12-07T21:38:53.614Z,2.00
2018-12-07T21:41:22.246Z,2.63
2018-12-07T21:43:51.456Z,2.13
2018-12-07T21:46:20.227Z,1.77
2018-12-07T21:48:48.995Z,2.57
2018-12-07T21:51:28.453Z,2.30
2018-12-07T21:53:57.218Z,2.00
2018-12-07T21:56:25.825Z,1.93
2018-12-07T21:58:54.948Z,2.57
2018-12-07T22:01:23.790Z,2.10
2018-12-07T22:03:53.032Z,2.60
2018-12-07T22:06:22.416Z,2.37
2018-12-07T22:08:51.250Z,2.47
2018-12-07T22:11:20.190Z,2.27
2018-12-07T22:13:49.409Z,2.57
2018-12-07T22:16:18.012Z,2.60
2018-12-07T22:18:47.029Z,2.63
2018-12-07T22:21:15.817Z,2.47
2018-12-07T22:23:45.138Z,2.63
2018-12-07T22:26:14.186Z,2.53
2018-12-07T22:28:42.788Z,2.00
2018-12-07T22:31:11.736Z,2.53
2018-12-07T22:33:40.762Z,3.27
2018-12-07T22:36:09.799Z,1.77
2018-12-07T22:38:38.907Z,2.37
2018-12-07T22:41:07.926Z,2.47
2018-12-07T22:43:36.855Z,3.23
2018-12-07T22:46:06.036Z,2.40
2018-12-07T22:48:34.912Z,2.17
2018-12-07T22:51:07.447Z,2.80
2018-12-07T22:53:37.188Z,3.83
2018-12-07T22:56:05.954Z,3.33
2018-12-07T22:58:34.658Z,2.07
2018-12-07T23:01:03.722Z,2.40
2018-12-07T23:03:32.484Z,2.53
2018-12-07T23:06:01.110Z,1.57
2018-12-07T23:08:29.894Z,2.50
2018-12-07T23:10:58.882Z,2.00
2018-12-07T23:13:27.781Z,4.40
2018-12-07T23:15:56.731Z,2.77
2018-12-07T23:18:25.310Z,4.07
2018-12-07T23:20:53.861Z,2.77
2018-12-07T23:23:22.419Z,1.90
2018-12-07T23:25:51.327Z,3.17
2018-12-07T23:28:20.085Z,3.00
2018-12-07T23:30:48.697Z,2.87
2018-12-07T23:33:17.459Z,3.00
2018-12-07T23:35:46.068Z,2.90
2018-12-07T23:38:14.797Z,3.33
2018-12-07T23:40:43.548Z,3.27
2018-12-07T23:43:12.166Z,3.47
2018-12-07T23:45:40.948Z,2.90
2018-12-07T23:48:09.636Z,4.27
2018-12-07T23:50:38.220Z,2.70
2018-12-07T23:53:06.905Z,2.20
2018-12-07T23:55:35.619Z,2.90
2018-12-07T23:58:04.426Z,3.03
